Time;durP1;ratioP1;P1;durP2;ratioP2;P2;SDS_P1;SDS_P2;PMS_P1;PMS_P2;Temp;Humidity;BMP_temperature;BMP_pressure;BME280_temperature;BME280_humidity;BME280_pressure;Samples;Min_cycle;Max_cycle;Signal;HPM_P1;HPM_P2
2022/10/15 00:01:28;;;;;;;;;4.50;4.50;;;;;16.55;81.11;100740.41;5117432;27;51085;-80
2022/10/15 00:03:53;;;;;;;;;5.25;4.50;;;;;16.59;81.11;100735.84;5129404;27;46556;-80
2022/10/15 00:06:19;;;;;;;;;4.00;4.00;;;;;16.59;80.79;100736.69;5120286;27;45321;-80
2022/10/15 00:08:46;;;;;;;;;7.50;6.00;;;;;16.60;80.76;100727.88;5120229;27;45484;-80
2022/10/15 00:11:14;;;;;;;;;6.25;6.00;;;;;16.60;80.91;100727.00;5120425;27;45365;-80
2022/10/15 00:13:40;;;;;;;;;10.00;4.00;;;;;16.59;81.04;100730.56;5120056;27;46248;-80
2022/10/15 00:16:11;;;;;;;;;7.00;4.00;;;;;16.56;80.99;100739.47;5138148;27;45464;-80
2022/10/15 00:18:37;;;;;;;;;8.00;5.25;;;;;16.53;80.95;100729.13;5126477;27;45544;-80
2022/10/15 00:21:05;;;;;;;;;6.00;5.75;;;;;16.55;80.87;100729.91;5120311;27;45353;-80
2022/10/15 00:23:30;;;;;;;;;6.75;4.50;;;;;16.55;81.10;100726.44;5119821;27;47087;-80
2022/10/15 00:26:04;;;;;;;;;6.00;4.25;;;;;16.54;80.98;100722.94;5138290;27;45406;-80
2022/10/15 00:28:29;;;;;;;;;8.00;4.50;;;;;16.55;81.37;100727.25;5114312;27;45572;-80
2022/10/15 00:31:04;;;;;;;;;6.75;4.00;;;;;16.58;81.06;100723.63;5116449;27;70202;-80
2022/10/15 00:33:29;;;;;;;;;7.75;5.50;;;;;16.59;81.12;100723.53;5117471;27;45700;-80
2022/10/15 00:36:02;;;;;;;;;6.25;5.50;;;;;16.60;81.34;100720.00;5131604;27;45706;-80
2022/10/15 00:38:27;;;;;;;;;6.00;5.75;;;;;16.62;81.51;100710.25;5101869;27;45328;-80
2022/10/15 00:40:53;;;;;;;;;7.00;6.00;;;;;16.65;80.99;100712.69;5099135;27;45533;-80
2022/10/15 00:43:41;;;;;;;;;6.50;6.00;;;;;16.68;81.02;100718.69;5117302;27;46319;-80
2022/10/15 00:46:34;;;;;;;;;5.50;5.50;;;;;16.69;81.25;100707.25;5132225;27;45814;-80
2022/10/15 00:49:19;;;;;;;;;6.25;6.00;;;;;16.69;80.96;100712.53;5119795;27;45673;-80
2022/10/15 00:51:48;;;;;;;;;7.00;5.00;;;;;16.67;81.13;100712.59;5102302;27;45530;-80
2022/10/15 00:54:14;;;;;;;;;6.25;5.25;;;;;16.63;81.13;100708.44;5098796;27;46310;-80
2022/10/15 00:56:42;;;;;;;;;6.75;6.75;;;;;16.60;81.30;100695.47;5116217;27;71343;-80
2022/10/15 00:59:08;;;;;;;;;5.25;5.25;;;;;16.57;81.41;100693.88;5104631;27;45427;-80
2022/10/15 01:01:34;;;;;;;;;9.75;6.00;;;;;16.53;81.48;100681.84;5105916;27;66455;-80
2022/10/15 01:04:00;;;;;;;;;5.25;5.00;;;;;16.53;81.45;100686.22;5117014;27;45443;-80
2022/10/15 01:06:26;;;;;;;;;8.25;5.75;;;;;16.54;81.48;100680.03;5119468;27;55375;-79
2022/10/15 01:08:51;;;;;;;;;8.50;5.00;;;;;16.54;81.61;100677.41;5136898;27;66130;-79
2022/10/15 01:11:29;;;;;;;;;7.50;6.00;;;;;16.53;81.58;100676.59;5122256;27;45298;-79
2022/10/15 01:14:10;;;;;;;;;4.00;4.00;;;;;16.50;81.53;100675.91;5098245;27;45606;-79
2022/10/15 01:16:44;;;;;;;;;7.50;5.50;;;;;16.49;81.70;100666.31;5098442;27;45822;-80
2022/10/15 01:19:27;;;;;;;;;5.50;5.25;;;;;16.48;81.90;100664.63;5112690;27;45315;-79
2022/10/15 01:22:01;;;;;;;;;4.25;4.00;;;;;16.45;81.83;100661.25;5118645;27;45471;-80
2022/10/15 01:24:42;;;;;;;;;7.50;6.00;;;;;16.45;81.82;100657.75;5119042;27;46562;-80
2022/10/15 01:27:19;;;;;;;;;4.50;4.25;;;;;16.45;82.21;100656.00;5114570;27;45734;-80
2022/10/15 01:30:20;;;;;;;;;6.00;5.25;;;;;16.44;82.24;100653.44;5098025;27;45522;-80
2022/10/15 01:33:34;;;;;;;;;7.00;4.00;;;;;16.39;82.11;100648.41;5098498;27;45539;-80
2022/10/15 01:36:07;;;;;;;;;4.00;3.00;;;;;16.37;82.11;100642.41;5106397;27;46104;-80
2022/10/15 01:38:47;;;;;;;;;4.50;3.75;;;;;16.38;82.39;100630.97;5097925;27;45600;-80
2022/10/15 01:41:30;;;;;;;;;4.75;3.50;;;;;16.40;82.29;100631.75;5081292;27;45340;-80
2022/10/15 01:44:11;;;;;;;;;5.00;4.00;;;;;16.38;82.39;100625.72;5116355;27;45791;-80
2022/10/15 01:46:49;;;;;;;;;3.25;3.25;;;;;16.37;82.24;100612.66;5098138;27;47345;-80
2022/10/15 01:49:20;;;;;;;;;2.00;2.00;;;;;16.35;82.20;100615.38;5117814;27;45713;-80
2022/10/15 01:51:47;;;;;;;;;3.25;2.00;;;;;16.34;82.24;100625.97;5118793;27;45497;-80
2022/10/15 01:54:16;;;;;;;;;2.00;2.00;;;;;16.32;82.64;100612.91;5115920;27;45394;-80
2022/10/15 01:56:48;;;;;;;;;2.00;2.00;;;;;16.32;82.61;100607.66;5097684;27;47099;-80
2022/10/15 01:59:24;;;;;;;;;1.00;1.00;;;;;16.30;82.30;100604.28;5117622;27;45486;-80
2022/10/15 02:01:49;;;;;;;;;2.75;2.00;;;;;16.35;82.40;100596.16;5101549;27;45264;-80
2022/10/15 02:04:26;;;;;;;;;2.50;2.00;;;;;16.35;82.42;100594.38;5116819;27;57740;-80
2022/10/15 02:07:32;;;;;;;;;2.00;2.00;;;;;16.37;82.67;100582.00;5097842;27;46099;-80
2022/10/15 02:10:09;;;;;;;;;1.00;1.00;;;;;16.39;82.69;100584.53;5098071;27;45777;-80
2022/10/15 02:12:50;;;;;;;;;2.00;2.00;;;;;16.38;82.56;100567.94;5102476;27;45693;-79
2022/10/15 02:15:43;;;;;;;;;2.00;2.00;;;;;16.38;82.42;100567.94;5134828;27;45427;-80
2022/10/15 02:18:14;;;;;;;;;1.00;1.00;;;;;16.39;82.67;100571.41;5127699;27;45462;-80
2022/10/15 02:21:03;;;;;;;;;2.00;2.00;;;;;16.43;82.68;100557.16;5121615;27;47095;-81
2022/10/15 02:23:45;;;;;;;;;3.50;2.00;;;;;16.48;82.52;100557.75;5109618;27;45209;-81
2022/10/15 02:26:12;;;;;;;;;3.00;2.00;;;;;16.50;82.25;100555.03;5120549;27;45209;-80
2022/10/15 02:28:41;;;;;;;;;2.00;2.00;;;;;16.50;82.56;100537.50;5114246;27;47276;-81
2022/10/15 02:31:08;;;;;;;;;2.00;2.00;;;;;16.53;82.25;100539.94;5121775;27;45360;-79
2022/10/15 02:33:34;;;;;;;;;3.50;2.75;;;;;16.55;82.47;100530.19;5115660;27;54456;-80
2022/10/15 02:36:00;;;;;;;;;4.50;2.00;;;;;16.59;82.06;100525.63;5100444;27;60353;-80
2022/10/15 02:38:27;;;;;;;;;3.00;1.75;;;;;16.62;81.80;100517.53;5100104;27;62074;-80
2022/10/15 02:40:53;;;;;;;;;2.00;2.00;;;;;16.64;82.04;100507.78;5083580;27;45478;-80
2022/10/15 02:43:20;;;;;;;;;1.00;1.00;;;;;16.65;81.87;100498.97;5101272;27;45323;-80
2022/10/15 02:45:45;;;;;;;;;1.00;1.00;;;;;16.67;81.92;100497.09;5119409;27;45575;-81
2022/10/15 02:48:10;;;;;;;;;1.00;1.00;;;;;16.67;81.80;100493.63;5130234;27;58567;-80
2022/10/15 02:50:36;;;;;;;;;2.00;2.00;;;;;16.67;81.80;100497.09;5131868;27;72161;-81
2022/10/15 02:53:01;;;;;;;;;1.00;1.00;;;;;16.66;82.03;100495.44;5118324;27;65213;-80
2022/10/15 02:55:26;;;;;;;;;1.25;1.25;;;;;16.63;81.87;100499.06;5118743;27;45364;-81
2022/10/15 02:57:52;;;;;;;;;2.75;2.25;;;;;16.60;82.28;100494.00;5118262;27;69644;-81
2022/10/15 03:00:17;;;;;;;;;1.25;1.00;;;;;16.59;82.01;100487.03;5119015;27;45425;-80
2022/10/15 03:02:43;;;;;;;;;3.00;1.75;;;;;16.58;82.33;100484.50;5118391;27;63447;-81
2022/10/15 03:05:08;;;;;;;;;2.00;2.00;;;;;16.55;82.52;100475.03;5122834;27;45383;-80
2022/10/15 03:07:34;;;;;;;;;2.00;1.75;;;;;16.56;82.80;100481.94;5120205;27;69265;-80
2022/10/15 03:09:59;;;;;;;;;1.25;1.25;;;;;16.53;82.68;100470.78;5103010;27;62669;-81
2022/10/15 03:12:24;;;;;;;;;0.25;0.25;;;;;16.54;82.92;100470.69;5139821;27;45361;-81
2022/10/15 03:14:50;;;;;;;;;2.00;2.00;;;;;16.54;83.08;100461.97;5139667;27;45235;-80
2022/10/15 03:17:16;;;;;;;;;1.00;1.00;;;;;16.57;83.05;100459.19;5138530;27;46454;-80
2022/10/15 03:19:41;;;;;;;;;1.75;1.00;;;;;16.56;82.98;100449.59;5103212;27;50500;-81
2022/10/15 03:22:06;;;;;;;;;1.00;1.00;;;;;16.56;83.21;100446.97;5120937;27;62240;-81
2022/10/15 03:24:32;;;;;;;;;1.00;1.00;;;;;16.58;83.52;100445.09;5117710;27;63685;-81
2022/10/15 03:26:57;;;;;;;;;1.00;1.00;;;;;16.59;83.43;100434.50;5118163;27;58655;-81
2022/10/15 03:29:22;;;;;;;;;2.00;1.00;;;;;16.63;83.07;100429.91;5121716;27;65431;-80
2022/10/15 03:31:48;;;;;;;;;1.00;1.00;;;;;16.65;83.30;100428.03;5138406;27;68309;-78
2022/10/15 03:34:14;;;;;;;;;1.00;1.00;;;;;16.66;83.20;100427.09;5109633;27;45299;-80
2022/10/15 03:36:39;;;;;;;;;1.00;1.00;;;;;16.64;83.17;100429.81;5118458;27;46137;-81
2022/10/15 03:39:05;;;;;;;;;1.00;1.00;;;;;16.64;83.50;100423.69;5118097;27;45295;-81
2022/10/15 03:41:30;;;;;;;;;0.00;0.00;;;;;16.62;83.19;100415.94;5118604;27;45369;-81
2022/10/15 03:44:00;;;;;;;;;0.00;0.00;;;;;16.64;83.29;100415.81;5117144;27;70664;-80
2022/10/15 03:46:26;;;;;;;;;0.00;0.00;;;;;16.64;83.51;100414.03;5129146;27;45492;-80
2022/10/15 03:48:51;;;;;;;;;1.00;0.00;;;;;16.66;83.70;100411.34;5117223;27;72163;-80
2022/10/15 03:51:16;;;;;;;;;0.00;0.00;;;;;16.67;84.00;100407.75;5118436;27;45291;-80
2022/10/15 03:53:42;;;;;;;;;0.00;0.00;;;;;16.67;83.85;100410.38;5117213;27;62649;-80
2022/10/15 03:56:07;;;;;;;;;0.00;0.00;;;;;16.69;83.65;100402.41;5117821;27;45433;-81
2022/10/15 03:58:32;;;;;;;;;0.00;0.00;;;;;16.70;83.65;100397.06;5117560;27;63267;-80
2022/10/15 04:00:58;;;;;;;;;0.00;0.00;;;;;16.74;83.67;100389.84;5099503;27;50876;-80
2022/10/15 04:03:23;;;;;;;;;1.00;0.00;;;;;16.75;84.01;100381.88;5118152;27;45422;-80
2022/10/15 04:05:50;;;;;;;;;0.00;0.00;;;;;16.76;83.65;100385.34;5117975;27;45414;-81
2022/10/15 04:08:15;;;;;;;;;0.00;0.00;;;;;16.75;84.04;100386.25;5117680;27;45343;-80
2022/10/15 04:10:41;;;;;;;;;0.50;0.00;;;;;16.78;84.22;100380.84;5123706;27;60234;-82
2022/10/15 04:13:06;;;;;;;;;0.00;0.00;;;;;16.76;84.13;100387.97;5138828;27;45470;-81
2022/10/15 04:15:31;;;;;;;;;0.00;0.00;;;;;16.76;84.26;100377.47;5137441;27;76417;-81
2022/10/15 04:17:57;;;;;;;;;0.00;0.00;;;;;16.77;84.49;100381.75;5138384;27;46790;-81
2022/10/15 04:20:22;;;;;;;;;0.00;0.00;;;;;16.77;84.12;100371.25;5138474;27;45379;-81
2022/10/15 04:22:47;;;;;;;;;0.00;0.00;;;;;16.77;84.19;100377.38;5138034;27;45401;-81
2022/10/15 04:25:13;;;;;;;;;1.00;0.00;;;;;16.77;84.89;100369.47;5135390;27;72033;-81
2022/10/15 04:27:38;;;;;;;;;0.00;0.00;;;;;16.76;84.71;100373.03;5137393;27;71011;-81
2022/10/15 04:30:04;;;;;;;;;0.00;0.00;;;;;16.77;84.90;100366.84;5138574;27;45330;-81
2022/10/15 04:32:36;;;;;;;;;0.25;0.00;;;;;16.79;84.59;100370.22;5138399;27;45291;-81
2022/10/15 04:35:01;;;;;;;;;1.00;0.00;;;;;16.79;84.92;100364.97;5119208;27;72160;-81
2022/10/15 04:37:27;;;;;;;;;0.00;0.00;;;;;16.80;85.14;100376.31;5118015;27;45555;-80
2022/10/15 04:39:52;;;;;;;;;1.00;0.00;;;;;16.81;84.80;100378.03;5116968;27;55696;-81
2022/10/15 04:42:17;;;;;;;;;1.50;1.00;;;;;16.81;84.99;100372.78;5116583;27;70071;-80
2022/10/15 04:44:43;;;;;;;;;1.00;1.00;;;;;16.82;85.29;100374.44;5131727;27;47079;-81
2022/10/15 04:47:08;;;;;;;;;4.75;1.00;;;;;16.81;85.45;100370.16;5119594;27;45418;-81
2022/10/15 04:49:33;;;;;;;;;1.50;0.00;;;;;16.82;85.27;100372.69;5137253;27;65070;-81
2022/10/15 04:51:59;;;;;;;;;3.00;1.00;;;;;16.86;85.21;100385.66;5137996;27;45382;-81
2022/10/15 04:54:24;;;;;;;;;1.00;1.00;;;;;16.88;84.98;100383.78;5136921;27;72745;-80
2022/10/15 04:56:49;;;;;;;;;2.00;1.00;;;;;16.86;85.31;100378.59;5102037;27;45441;-81
2022/10/15 04:59:14;;;;;;;;;1.00;1.00;;;;;16.87;84.86;100382.09;5116682;27;59419;-81
2022/10/15 05:01:40;;;;;;;;;0.25;0.25;;;;;16.88;85.04;100389.88;5116521;27;63940;-81
2022/10/15 05:04:05;;;;;;;;;0.75;0.75;;;;;16.90;84.98;100395.03;5097914;27;72239;-81
2022/10/15 05:06:31;;;;;;;;;0.00;0.00;;;;;16.91;85.04;100389.69;5110313;27;71604;-81
2022/10/15 05:09:00;;;;;;;;;0.00;0.00;;;;;16.95;85.32;100390.34;5118374;27;45375;-80
2022/10/15 05:11:26;;;;;;;;;0.00;0.00;;;;;16.97;84.66;100391.94;5119461;27;45367;-80
2022/10/15 05:13:54;;;;;;;;;0.00;0.00;;;;;16.98;85.10;100385.75;5126354;27;45489;-81
2022/10/15 05:16:22;;;;;;;;;0.00;0.00;;;;;16.99;84.83;100387.47;5127928;27;45483;-80
2022/10/15 05:18:50;;;;;;;;;0.00;0.00;;;;;17.00;84.91;100391.75;5119390;27;45189;-81
2022/10/15 05:21:17;;;;;;;;;0.25;0.00;;;;;17.01;84.97;100382.06;5136919;27;45326;-80
2022/10/15 05:23:43;;;;;;;;;0.00;0.00;;;;;17.02;84.83;100379.34;5119183;27;45522;-80
2022/10/15 05:26:14;;;;;;;;;2.00;0.00;;;;;17.06;84.54;100392.31;5127642;27;45366;-80
2022/10/15 05:28:40;;;;;;;;;0.00;0.00;;;;;17.05;84.68;100388.88;5098662;27;45537;-80
2022/10/15 05:31:07;;;;;;;;;0.00;0.00;;;;;17.07;84.54;100394.88;5116764;27;45370;-80
2022/10/15 05:33:32;;;;;;;;;1.00;0.00;;;;;17.08;84.59;100390.44;5098291;27;45429;-80
2022/10/15 05:36:15;;;;;;;;;0.00;0.00;;;;;17.11;84.54;100382.38;5116562;27;45471;-81
2022/10/15 05:38:41;;;;;;;;;0.50;0.00;;;;;17.14;84.61;100390.94;5098737;27;45463;-80
2022/10/15 05:41:06;;;;;;;;;0.00;0.00;;;;;17.15;84.13;100391.75;5098496;27;45493;-80
2022/10/15 05:43:32;;;;;;;;;0.50;0.00;;;;;17.15;84.50;100387.34;5115553;27;71194;-80
2022/10/15 05:45:58;;;;;;;;;2.00;0.00;;;;;17.19;84.23;100377.47;5124170;27;45425;-80
2022/10/15 05:48:23;;;;;;;;;0.00;0.00;;;;;17.21;84.52;100381.69;5119019;27;45502;-81
2022/10/15 05:50:49;;;;;;;;;0.00;0.00;;;;;17.20;84.17;100377.38;5136895;27;45342;-80
2022/10/15 05:53:14;;;;;;;;;0.00;0.00;;;;;17.19;84.43;100374.84;5138891;27;68405;-80
2022/10/15 05:55:39;;;;;;;;;0.00;0.00;;;;;17.18;84.67;100379.25;5133582;27;70624;-80
2022/10/15 05:58:05;;;;;;;;;0.00;0.00;;;;;17.18;84.57;100383.69;5119881;27;49935;-80
2022/10/15 06:00:31;;;;;;;;;0.00;0.00;;;;;17.19;84.65;100380.09;5122292;27;70155;-80
2022/10/15 06:02:56;;;;;;;;;0.00;0.00;;;;;17.20;84.56;100376.56;5114172;27;47313;-79
2022/10/15 06:05:21;;;;;;;;;0.00;0.00;;;;;17.21;84.69;100380.84;5120556;27;45626;-80
2022/10/15 06:07:47;;;;;;;;;0.00;0.00;;;;;17.21;84.51;100379.06;5119966;27;45311;-80
2022/10/15 06:10:12;;;;;;;;;0.00;0.00;;;;;17.21;84.51;100381.69;5118813;27;70078;-81
2022/10/15 06:12:38;;;;;;;;;1.00;0.00;;;;;17.24;84.97;100380.66;5108151;27;47123;-80
2022/10/15 06:15:04;;;;;;;;;0.00;0.00;;;;;17.25;84.88;100381.50;5119738;27;45233;-81
2022/10/15 06:17:29;;;;;;;;;0.00;0.00;;;;;17.24;84.87;100382.47;5125285;27;45283;-80
2022/10/15 06:19:55;;;;;;;;;0.00;0.00;;;;;17.25;84.45;100382.34;5121980;27;45445;-80
2022/10/15 06:22:20;;;;;;;;;0.00;0.00;;;;;17.25;84.47;100384.97;5140058;27;45499;-80
2022/10/15 06:24:45;;;;;;;;;0.00;0.00;;;;;17.27;84.60;100382.25;5121539;27;52809;-80
2022/10/15 06:27:12;;;;;;;;;0.00;0.00;;;;;17.30;84.44;100387.34;5124801;27;64277;-78
2022/10/15 06:29:38;;;;;;;;;0.75;0.00;;;;;17.31;84.38;100386.38;5115055;27;45395;-80
2022/10/15 06:32:03;;;;;;;;;0.00;0.00;;;;;17.33;84.40;100390.63;5124079;27;46275;-78
2022/10/15 06:34:29;;;;;;;;;0.00;0.00;;;;;17.33;84.15;100395.88;5127110;27;45808;-77
2022/10/15 06:36:54;;;;;;;;;0.00;0.00;;;;;17.34;84.27;100391.44;5109619;27;45466;-79
2022/10/15 06:39:20;;;;;;;;;0.00;0.00;;;;;17.32;84.51;100399.44;5139372;27;63305;-79
2022/10/15 06:41:45;;;;;;;;;0.00;0.00;;;;;17.35;84.49;100404.50;5118955;27;48093;-79
2022/10/15 06:44:10;;;;;;;;;4.00;1.00;;;;;17.34;84.92;100392.28;5119319;27;45428;-79
2022/10/15 06:46:36;;;;;;;;;0.25;0.25;;;;;17.36;84.42;100398.28;5119271;27;45366;-80
2022/10/15 06:49:01;;;;;;;;;1.00;0.00;;;;;17.37;84.83;100394.75;5127139;27;45273;-80
2022/10/15 06:51:27;;;;;;;;;0.00;0.00;;;;;17.37;84.74;100399.16;5140000;27;45320;-79
2022/10/15 06:53:52;;;;;;;;;0.00;0.00;;;;;17.36;84.84;100407.97;5138522;27;72166;-79
2022/10/15 06:56:17;;;;;;;;;0.00;0.00;;;;;17.37;84.82;100407.06;5107810;27;45474;-79
2022/10/15 06:58:43;;;;;;;;;0.00;0.00;;;;;17.36;84.48;100406.19;5135952;27;45562;-80
2022/10/15 07:01:09;;;;;;;;;0.00;0.00;;;;;17.35;84.46;100406.31;5118196;27;48214;-79
2022/10/15 07:03:35;;;;;;;;;0.75;0.00;;;;;17.37;84.58;100410.53;5119127;27;46003;-79
2022/10/15 07:06:05;;;;;;;;;0.50;0.00;;;;;17.40;84.67;100404.22;5119196;27;45316;-79
2022/10/15 07:08:31;;;;;;;;;0.75;0.00;;;;;17.45;84.79;100415.31;5119253;27;45372;-80
2022/10/15 07:10:56;;;;;;;;;0.00;0.00;;;;;17.50;84.71;100409.75;5118692;27;46231;-79
2022/10/15 07:13:21;;;;;;;;;0.00;0.00;;;;;17.56;84.70;100407.56;5118957;27;45367;-79
2022/10/15 07:15:52;;;;;;;;;0.00;0.00;;;;;17.62;84.44;100416.88;5117513;27;69075;-79
2022/10/15 07:18:18;;;;;;;;;0.00;0.00;;;;;17.68;84.31;100420.88;5118934;27;45452;-79
2022/10/15 07:20:43;;;;;;;;;0.50;0.00;;;;;17.74;84.32;100425.78;5118555;27;46053;-79
2022/10/15 07:23:08;;;;;;;;;0.00;0.00;;;;;17.77;84.16;100431.69;5118658;27;48621;-80
2022/10/15 07:25:33;;;;;;;;;0.00;0.00;;;;;17.81;84.26;100434.94;5118568;27;47978;-80
2022/10/15 07:27:59;;;;;;;;;0.00;0.00;;;;;17.86;83.99;100435.53;5099205;27;69992;-79
2022/10/15 07:30:27;;;;;;;;;0.00;0.00;;;;;17.93;83.66;100439.47;5117213;27;74711;-79
2022/10/15 07:32:57;;;;;;;;;0.00;0.00;;;;;17.99;83.41;100446.97;5100698;27;45783;-81
2022/10/15 07:35:23;;;;;;;;;0.00;0.00;;;;;18.02;83.41;100445.94;5100198;27;45423;-78
2022/10/15 07:37:49;;;;;;;;;0.00;0.00;;;;;18.04;83.34;100445.84;5118434;27;45358;-79
2022/10/15 07:40:15;;;;;;;;;0.00;0.00;;;;;18.09;83.13;100452.50;5118440;27;46316;-79
2022/10/15 07:42:41;;;;;;;;;0.00;0.00;;;;;18.09;82.72;100443.75;5118448;27;45315;-79
2022/10/15 07:45:06;;;;;;;;;0.00;0.00;;;;;18.12;83.14;100454.91;5117812;27;48351;-79
2022/10/15 07:47:32;;;;;;;;;0.00;0.00;;;;;18.16;82.77;100450.31;5118517;27;45150;-80
2022/10/15 07:49:57;;;;;;;;;0.00;0.00;;;;;18.19;82.70;100453.59;5117988;27;55621;-78
2022/10/15 07:52:22;;;;;;;;;0.75;0.00;;;;;18.19;82.43;100455.38;5117370;27;71660;-80
2022/10/15 07:54:48;;;;;;;;;0.00;0.00;;;;;18.15;82.47;100467.06;5118043;27;46573;-79
2022/10/15 07:57:13;;;;;;;;;0.00;0.00;;;;;18.12;82.49;100468.09;5117621;27;64027;-79
2022/10/15 07:59:38;;;;;;;;;0.00;0.00;;;;;18.15;82.40;100481.06;5117835;27;46212;-79
2022/10/15 08:02:04;;;;;;;;;0.00;0.00;;;;;18.14;82.57;100468.00;5099145;27;61914;-79
2022/10/15 08:04:29;;;;;;;;;0.00;0.00;;;;;18.14;81.98;100465.38;5118126;27;45386;-79
2022/10/15 08:06:54;;;;;;;;;0.00;0.00;;;;;18.15;82.24;100469.69;5099626;27;45655;-79
2022/10/15 08:09:20;;;;;;;;;0.00;0.00;;;;;18.15;82.28;100473.19;5117788;27;47094;-79
2022/10/15 08:11:45;;;;;;;;;0.00;0.00;;;;;18.18;81.87;100477.38;5099583;27;45444;-79
2022/10/15 08:14:11;;;;;;;;;0.00;0.00;;;;;18.16;81.58;100480.16;5116869;27;61482;-79
2022/10/15 08:16:36;;;;;;;;;0.00;0.00;;;;;18.14;81.46;100487.28;5116607;27;55215;-79
2022/10/15 08:19:01;;;;;;;;;0.00;0.00;;;;;18.14;81.75;100482.00;5116536;27;74362;-79
2022/10/15 08:21:26;;;;;;;;;0.00;0.00;;;;;18.16;81.44;100482.78;5117520;27;45301;-77
2022/10/15 08:23:52;;;;;;;;;0.00;0.00;;;;;18.18;81.22;100485.28;5118004;27;45355;-77
2022/10/15 08:26:18;;;;;;;;;0.00;0.00;;;;;18.18;80.87;100483.53;5117881;27;45461;-76
2022/10/15 08:28:43;;;;;;;;;0.00;0.00;;;;;18.20;81.08;100480.75;5117124;27;45444;-76
2022/10/15 08:31:08;;;;;;;;;0.00;0.00;;;;;18.17;80.63;100468.66;5099430;27;45316;-78
2022/10/15 08:33:35;;;;;;;;;0.00;0.00;;;;;18.22;80.48;100475.41;5122330;27;53840;-78
2022/10/15 08:36:01;;;;;;;;;0.00;0.00;;;;;18.22;80.43;100486.81;5138138;27;45293;-78
2022/10/15 08:38:26;;;;;;;;;0.00;0.00;;;;;18.25;80.51;100480.47;5137863;27;46859;-79
2022/10/15 08:40:54;;;;;;;;;0.00;0.00;;;;;18.31;80.48;100487.97;5138303;27;45308;-78
2022/10/15 08:43:38;;;;;;;;;0.00;0.00;;;;;18.31;80.01;100502.00;5137981;27;45404;-78
2022/10/15 08:46:12;;;;;;;;;0.00;0.00;;;;;18.33;79.94;100499.25;5102478;27;45359;-78
2022/10/15 08:48:46;;;;;;;;;0.00;0.00;;;;;18.35;79.83;100498.22;5119585;27;46227;-78
2022/10/15 08:51:25;;;;;;;;;0.00;0.00;;;;;18.40;79.58;100503.19;5119687;27;45386;-78
2022/10/15 08:53:54;;;;;;;;;0.00;0.00;;;;;18.44;79.12;100496.75;5119651;27;45432;-78
2022/10/15 08:56:40;;;;;;;;;0.00;0.00;;;;;18.51;79.13;100499.84;5119493;27;45343;-78
2022/10/15 08:59:41;;;;;;;;;0.00;0.00;;;;;18.56;78.49;100503.03;5119011;27;46581;-78
2022/10/15 09:02:09;;;;;;;;;0.00;0.00;;;;;18.66;78.81;100508.53;5119428;27;45316;-78
2022/10/15 09:04:59;;;;;;;;;0.00;0.00;;;;;18.82;77.99;100522.41;5138192;27;45416;-78
2022/10/15 09:07:37;;;;;;;;;0.00;0.00;;;;;18.93;77.92;100514.63;5119557;27;45363;-77
2022/10/15 09:10:11;;;;;;;;;1.00;0.00;;;;;19.03;77.42;100514.00;5119290;27;47070;-77
2022/10/15 09:13:03;;;;;;;;;0.00;0.00;;;;;19.20;76.88;100521.59;5118998;27;45803;-78
2022/10/15 09:15:33;;;;;;;;;0.00;0.00;;;;;19.31;76.46;100520.88;5119415;27;45283;-78
2022/10/15 09:17:58;;;;;;;;;0.00;0.00;;;;;19.46;76.06;100525.06;5119268;27;45344;-78
2022/10/15 09:20:36;;;;;;;;;0.00;0.00;;;;;19.59;74.74;100521.59;5118675;27;53201;-78
2022/10/15 09:23:02;;;;;;;;;0.00;0.00;;;;;19.62;74.62;100526.66;5119096;27;45399;-76
2022/10/15 09:25:34;;;;;;;;;0.00;0.00;;;;;19.58;74.63;100538.41;5137832;27;45622;-77
2022/10/15 09:28:08;;;;;;;;;2.00;0.00;;;;;19.52;74.15;100547.59;5139216;27;45271;-77
2022/10/15 09:30:52;;;;;;;;;0.00;0.00;;;;;19.43;74.36;100549.06;5141400;27;47061;-78
2022/10/15 09:33:32;;;;;;;;;1.00;0.00;;;;;19.42;74.53;100547.38;5122626;27;45696;-78
2022/10/15 09:35:57;;;;;;;;;0.00;0.00;;;;;19.42;74.26;100552.63;5122882;27;45484;-78
2022/10/15 09:38:44;;;;;;;;;0.00;0.00;;;;;19.38;74.03;100555.59;5141039;27;45504;-78
2022/10/15 09:41:28;;;;;;;;;0.50;0.00;;;;;19.32;74.41;100544.53;5122128;27;46504;-78
2022/10/15 09:43:56;;;;;;;;;0.00;0.00;;;;;19.30;74.37;100543.78;5141236;27;45580;-78
2022/10/15 09:46:22;;;;;;;;;0.00;0.00;;;;;19.32;74.82;100548.97;5122648;27;45405;-79
2022/10/15 09:48:57;;;;;;;;;1.50;0.00;;;;;19.37;75.33;100548.63;5122526;27;45521;-77
2022/10/15 09:51:35;;;;;;;;;1.25;0.00;;;;;19.42;74.22;100555.28;5122355;27;46175;-78
2022/10/15 09:54:03;;;;;;;;;0.00;0.00;;;;;19.46;74.54;100567.31;5122459;27;45387;-77
2022/10/15 09:56:38;;;;;;;;;0.00;0.00;;;;;19.45;73.57;100570.91;5140602;27;45292;-78
2022/10/15 09:59:04;;;;;;;;;0.00;0.00;;;;;19.38;73.88;100589.91;5122470;27;45374;-77
2022/10/15 10:01:31;;;;;;;;;0.00;0.00;;;;;19.28;74.33;100593.19;5122302;27;45475;-77
2022/10/15 10:04:17;;;;;;;;;0.00;0.00;;;;;19.28;74.53;100602.91;5140826;27;46382;-77
2022/10/15 10:06:49;;;;;;;;;0.00;0.00;;;;;19.39;74.89;100604.78;5140859;27;45484;-77
2022/10/15 10:09:42;;;;;;;;;1.00;0.00;;;;;19.58;74.65;100615.78;5140953;27;45320;-77
2022/10/15 10:12:17;;;;;;;;;0.50;0.00;;;;;19.63;74.03;100611.06;5140707;27;46334;-78
2022/10/15 10:14:52;;;;;;;;;0.00;0.00;;;;;19.61;73.68;100618.19;5122129;27;45457;-77
2022/10/15 10:17:20;;;;;;;;;0.00;0.00;;;;;19.49;72.41;100617.25;5122326;27;45447;-77
2022/10/15 10:20:08;;;;;;;;;0.00;0.00;;;;;19.50;72.64;100621.59;5140402;27;45347;-77
2022/10/15 10:22:48;;;;;;;;;0.25;0.00;;;;;19.62;72.50;100611.16;5139475;27;46352;-77
2022/10/15 10:25:26;;;;;;;;;0.00;0.00;;;;;19.63;71.58;100611.06;5139099;27;45525;-76
2022/10/15 10:27:52;;;;;;;;;0.00;0.00;;;;;19.69;71.73;100618.53;5139572;27;45537;-77
2022/10/15 10:30:18;;;;;;;;;0.00;0.00;;;;;19.85;71.49;100620.97;5120967;27;45313;-77
2022/10/15 10:32:44;;;;;;;;;0.00;0.00;;;;;19.97;69.57;100626.38;5139180;27;47381;-78
2022/10/15 10:35:20;;;;;;;;;0.00;0.00;;;;;20.04;69.53;100625.84;5137970;27;73378;-77
2022/10/15 10:37:46;;;;;;;;;0.00;0.00;;;;;20.09;68.95;100626.34;5138692;27;45357;-77
2022/10/15 10:40:31;;;;;;;;;0.00;0.00;;;;;20.26;70.19;100635.72;5119317;27;67415;-77
2022/10/15 10:43:15;;;;;;;;;0.00;0.00;;;;;20.59;69.27;100634.25;5120375;27;46483;-77
2022/10/15 10:46:14;;;;;;;;;0.00;0.00;;;;;20.87;69.56;100629.59;5138976;27;45284;-77
2022/10/15 10:48:44;;;;;;;;;0.00;0.00;;;;;20.95;66.93;100621.97;5120974;27;45429;-77
2022/10/15 10:51:13;;;;;;;;;0.00;0.00;;;;;20.94;66.51;100630.00;5139053;27;45413;-77
2022/10/15 10:53:52;;;;;;;;;0.00;0.00;;;;;20.79;66.48;100645.22;5138512;27;46554;-77
2022/10/15 10:56:22;;;;;;;;;0.00;0.00;;;;;20.54;66.56;100646.09;5120243;27;45647;-77
2022/10/15 10:58:51;;;;;;;;;0.75;0.00;;;;;20.23;67.04;100651.81;5120361;27;45422;-76
2022/10/15 11:01:16;;;;;;;;;0.00;0.00;;;;;20.04;66.84;100652.25;5120447;27;45347;-77
2022/10/15 11:03:44;;;;;;;;;0.00;0.00;;;;;19.88;67.68;100646.34;5137475;27;76493;-78
2022/10/15 11:06:22;;;;;;;;;0.00;0.00;;;;;19.70;68.02;100659.81;5120130;27;45403;-78
2022/10/15 11:09:28;;;;;;;;;0.00;0.00;;;;;19.48;68.49;100665.75;5138215;27;45279;-77
2022/10/15 11:12:30;;;;;;;;;0.00;0.00;;;;;19.32;69.68;100657.16;5100073;27;45463;-77
2022/10/15 11:15:14;;;;;;;;;0.00;0.00;;;;;19.07;69.70;100660.56;5117690;27;46289;-76
2022/10/15 11:17:52;;;;;;;;;0.00;0.00;;;;;18.96;70.55;100663.91;5138390;27;45543;-76
2022/10/15 11:20:27;;;;;;;;;0.00;0.00;;;;;18.97;71.66;100659.50;5108320;27;158811;-77
2022/10/15 11:23:30;;;;;;;;;0.00;0.00;;;;;19.06;71.46;100665.00;5109936;27;45491;-77
2022/10/15 11:26:10;;;;;;;;;0.75;0.00;;;;;19.18;72.31;100660.69;5139568;27;47265;-78
2022/10/15 11:28:58;;;;;;;;;0.00;0.00;;;;;19.44;71.97;100661.59;5120715;27;45691;-79
2022/10/15 11:31:23;;;;;;;;;0.00;0.00;;;;;19.78;71.02;100659.34;5139603;27;45327;-78
2022/10/15 11:33:58;;;;;;;;;0.00;0.00;;;;;20.06;69.82;100663.56;5120206;27;45456;-77
2022/10/15 11:36:29;;;;;;;;;0.00;0.00;;;;;20.68;69.85;100669.78;5139070;27;45367;-77
2022/10/15 11:39:18;;;;;;;;;0.00;0.00;;;;;21.90;68.29;100655.41;5133486;27;45370;-78